<?xml version="1.0" encoding="UTF-8" standalone="no" ?>
<gpx xmlns="http://www.topografix.com/GPX/1/1" xmlns:xsi="http://www.w3.org/2001/XMLSchema-instance" xsi:schemaLocation="http://www.topografix.com/GPX/1/1 http://www.topografix.com/GPX/1/1/gpx.xsd" version="1.1" creator="VisuGPX - https://www.visugpx.com">
  <metadata>
    <name>Rando des sorcières</name>
    <desc><![CDATA[Rando des sorcières à Belmont
]]></desc>
  </metadata>
  <trk>
    <name><![CDATA[Move]]></name>
    <trkseg>
      <trkpt lat="48.40859" lon="7.23724">
        <ele>813.59997558594</ele>
        <time>2018-09-22T18:20:04.009Z</time>
      </trkpt>
      <trkpt lat="48.40849" lon="7.23727">
        <ele>811.24089984</ele>
        <time>2018-09-22T18:20:15.009Z</time>
      </trkpt>
      <trkpt lat="48.40783" lon="7.23752">
        <ele>817.84089984</ele>
        <time>2018-09-22T18:21:21.009Z</time>
      </trkpt>
      <trkpt lat="48.40788" lon="7.23823">
        <ele>828.04089984</ele>
        <time>2018-09-22T18:22:23.009Z</time>
      </trkpt>
      <trkpt lat="48.40833" lon="7.23879">
        <ele>836.64089984</ele>
        <time>2018-09-22T18:23:29.009Z</time>
      </trkpt>
      <trkpt lat="48.40888" lon="7.23903">
        <ele>845.28179968</ele>
        <time>2018-09-22T18:24:34.009Z</time>
      </trkpt>
      <trkpt lat="48.4094" lon="7.23952">
        <ele>859.04089984</ele>
        <time>2018-09-22T18:25:43.009Z</time>
      </trkpt>
      <trkpt lat="48.40986" lon="7.24002">
        <ele>864.44089984</ele>
        <time>2018-09-22T18:26:47.009Z</time>
      </trkpt>
      <trkpt lat="48.40979" lon="7.24002">
        <ele>865.48179968</ele>
        <time>2018-09-22T18:28:10.009Z</time>
      </trkpt>
      <trkpt lat="48.41028" lon="7.24062">
        <ele>867.04089984</ele>
        <time>2018-09-22T18:29:13.009Z</time>
      </trkpt>
      <trkpt lat="48.41046" lon="7.24085">
        <ele>873</ele>
        <time>2018-09-22T18:34:34.009Z</time>
      </trkpt>
      <trkpt lat="48.41044" lon="7.24134">
        <ele>892.71820032</ele>
        <time>2018-09-22T18:35:19.009Z</time>
      </trkpt>
      <trkpt lat="48.41088" lon="7.24162">
        <ele>893.68179968</ele>
        <time>2018-09-22T18:36:11.009Z</time>
      </trkpt>
      <trkpt lat="48.41046" lon="7.24253">
        <ele>884.36734035526</ele>
        <time>2018-09-22T18:37:10.009Z</time>
      </trkpt>
      <trkpt lat="48.41065" lon="7.24333">
        <ele>884.84539904</ele>
        <time>2018-09-22T18:38:09.009Z</time>
      </trkpt>
      <trkpt lat="48.41065" lon="7.24392">
        <ele>897.09079808</ele>
        <time>2018-09-22T18:39:11.009Z</time>
      </trkpt>
      <trkpt lat="48.4108" lon="7.24477">
        <ele>902.2044992</ele>
        <time>2018-09-22T18:40:09.009Z</time>
      </trkpt>
      <trkpt lat="48.41092" lon="7.24555">
        <ele>907.2044992</ele>
        <time>2018-09-22T18:41:09.009Z</time>
      </trkpt>
      <trkpt lat="48.41134" lon="7.2462">
        <ele>910.68179968</ele>
        <time>2018-09-22T18:42:11.009Z</time>
      </trkpt>
      <trkpt lat="48.41118" lon="7.24705">
        <ele>923.8179968</ele>
        <time>2018-09-22T18:43:09.009Z</time>
      </trkpt>
      <trkpt lat="48.41085" lon="7.24777">
        <ele>937.6134976</ele>
        <time>2018-09-22T18:44:07.009Z</time>
      </trkpt>
      <trkpt lat="48.41048" lon="7.24835">
        <ele>944.07730048</ele>
        <time>2018-09-22T18:45:09.009Z</time>
      </trkpt>
      <trkpt lat="48.41028" lon="7.24843">
        <ele>943.28179968</ele>
        <time>2018-09-22T18:47:09.009Z</time>
      </trkpt>
      <trkpt lat="48.41008" lon="7.24859">
        <ele>942.67730048</ele>
        <time>2018-09-22T18:48:07.009Z</time>
      </trkpt>
      <trkpt lat="48.40966" lon="7.24897">
        <ele>950.63169792</ele>
        <time>2018-09-22T18:49:10.009Z</time>
      </trkpt>
      <trkpt lat="48.40929" lon="7.24944">
        <ele>950.63640064</ele>
        <time>2018-09-22T18:50:11.009Z</time>
      </trkpt>
      <trkpt lat="48.4088" lon="7.24968">
        <ele>952.22269952</ele>
        <time>2018-09-22T18:51:10.009Z</time>
      </trkpt>
      <trkpt lat="48.40814" lon="7.24981">
        <ele>945.5910016</ele>
        <time>2018-09-22T18:52:10.009Z</time>
      </trkpt>
      <trkpt lat="48.40748" lon="7.24989">
        <ele>947.2044992</ele>
        <time>2018-09-22T18:53:11.009Z</time>
      </trkpt>
      <trkpt lat="48.40684" lon="7.24968">
        <ele>953.92719872</ele>
        <time>2018-09-22T18:54:10.009Z</time>
      </trkpt>
      <trkpt lat="48.40614" lon="7.24925">
        <ele>942.66380288</ele>
        <time>2018-09-22T18:55:10.009Z</time>
      </trkpt>
      <trkpt lat="48.40542" lon="7.24881">
        <ele>938</ele>
        <time>2018-09-22T18:56:10.009Z</time>
      </trkpt>
      <trkpt lat="48.40477" lon="7.24835">
        <ele>921.977504</ele>
        <time>2018-09-22T18:57:09.009Z</time>
      </trkpt>
      <trkpt lat="48.40451" lon="7.24748">
        <ele>930.78159616</ele>
        <time>2018-09-22T18:58:10.009Z</time>
      </trkpt>
      <trkpt lat="48.40414" lon="7.24661">
        <ele>924.3865024</ele>
        <time>2018-09-22T18:59:11.009Z</time>
      </trkpt>
      <trkpt lat="48.40371" lon="7.24575">
        <ele>906.44110336</ele>
        <time>2018-09-22T19:00:10.009Z</time>
      </trkpt>
      <trkpt lat="48.4037" lon="7.24539">
        <ele>892.85010176</ele>
        <time>2018-09-22T19:01:10.009Z</time>
      </trkpt>
      <trkpt lat="48.40338" lon="7.24522">
        <ele>896.72719872</ele>
        <time>2018-09-22T19:02:11.009Z</time>
      </trkpt>
      <trkpt lat="48.40297" lon="7.24445">
        <ele>897.45910016</ele>
        <time>2018-09-22T19:03:08.009Z</time>
      </trkpt>
      <trkpt lat="48.40254" lon="7.24366">
        <ele>897.84089984</ele>
        <time>2018-09-22T19:04:11.009Z</time>
      </trkpt>
      <trkpt lat="48.40239" lon="7.24292">
        <ele>881.977504</ele>
        <time>2018-09-22T19:06:07.009Z</time>
      </trkpt>
      <trkpt lat="48.40194" lon="7.24184">
        <ele>893.2269952</ele>
        <time>2018-09-22T19:07:11.009Z</time>
      </trkpt>
      <trkpt lat="48.40164" lon="7.24108">
        <ele>888.3865024</ele>
        <time>2018-09-22T19:08:09.009Z</time>
      </trkpt>
      <trkpt lat="48.40138" lon="7.24063">
        <ele>890.40159916934</ele>
        <time>2018-09-22T19:09:10.009Z</time>
      </trkpt>
      <trkpt lat="48.40179" lon="7.24052">
        <ele>887.87280128</ele>
        <time>2018-09-22T19:10:09.009Z</time>
      </trkpt>
      <trkpt lat="48.40226" lon="7.24088">
        <ele>878.33190144</ele>
        <time>2018-09-22T19:11:10.009Z</time>
      </trkpt>
      <trkpt lat="48.40267" lon="7.24132">
        <ele>881.04539904</ele>
        <time>2018-09-22T19:12:11.009Z</time>
      </trkpt>
      <trkpt lat="48.40312" lon="7.24185">
        <ele>859.7730048</ele>
        <time>2018-09-22T19:13:10.009Z</time>
      </trkpt>
      <trkpt lat="48.40348" lon="7.24255">
        <ele>843.66830208</ele>
        <time>2018-09-22T19:14:09.009Z</time>
      </trkpt>
      <trkpt lat="48.40405" lon="7.24288">
        <ele>865.06789504</ele>
        <time>2018-09-22T19:15:11.009Z</time>
      </trkpt>
      <trkpt lat="48.40462" lon="7.24345">
        <ele>855.00940544</ele>
        <time>2018-09-22T19:16:07.009Z</time>
      </trkpt>
      <trkpt lat="48.40537" lon="7.24381">
        <ele>846.93169792</ele>
        <time>2018-09-22T19:17:11.009Z</time>
      </trkpt>
      <trkpt lat="48.40591" lon="7.24358">
        <ele>845.93190144</ele>
        <time>2018-09-22T19:18:16.009Z</time>
      </trkpt>
      <trkpt lat="48.40648" lon="7.24342">
        <ele>838.31820032</ele>
        <time>2018-09-22T19:19:11.009Z</time>
      </trkpt>
      <trkpt lat="48.40692" lon="7.24289">
        <ele>823.90020352</ele>
        <time>2018-09-22T19:20:09.009Z</time>
      </trkpt>
      <trkpt lat="48.40736" lon="7.2423">
        <ele>811.5910016</ele>
        <time>2018-09-22T19:21:07.009Z</time>
      </trkpt>
      <trkpt lat="48.40748" lon="7.24234">
        <ele>814.14989824</ele>
        <time>2018-09-22T19:22:10.009Z</time>
      </trkpt>
      <trkpt lat="48.40734" lon="7.2423">
        <ele>826.63169792</ele>
        <time>2018-09-22T19:23:10.009Z</time>
      </trkpt>
      <trkpt lat="48.40745" lon="7.24222">
        <ele>814.87891912213</ele>
        <time>2018-09-22T19:24:11.009Z</time>
      </trkpt>
      <trkpt lat="48.40719" lon="7.24204">
        <ele>809.7955008</ele>
        <time>2018-09-22T19:30:09.009Z</time>
      </trkpt>
      <trkpt lat="48.40699" lon="7.24129">
        <ele>804.03190144</ele>
        <time>2018-09-22T19:31:07.009Z</time>
      </trkpt>
      <trkpt lat="48.4065" lon="7.24119">
        <ele>791.5910016</ele>
        <time>2018-09-22T19:32:10.009Z</time>
      </trkpt>
      <trkpt lat="48.40586" lon="7.24121">
        <ele>785.7955008</ele>
        <time>2018-09-22T19:33:09.009Z</time>
      </trkpt>
      <trkpt lat="48.40533" lon="7.24098">
        <ele>784.44089984</ele>
        <time>2018-09-22T19:34:07.009Z</time>
      </trkpt>
      <trkpt lat="48.4047" lon="7.24035">
        <ele>788.52719872</ele>
        <time>2018-09-22T19:35:07.009Z</time>
      </trkpt>
      <trkpt lat="48.4051" lon="7.24056">
        <ele>783.75010176</ele>
        <time>2018-09-22T19:36:11.009Z</time>
      </trkpt>
      <trkpt lat="48.40581" lon="7.24023">
        <ele>776.87280128</ele>
        <time>2018-09-22T19:37:09.009Z</time>
      </trkpt>
      <trkpt lat="48.40604" lon="7.23992">
        <ele>788.07217070761</ele>
        <time>2018-09-22T19:38:10.009Z</time>
      </trkpt>
      <trkpt lat="48.40637" lon="7.23921">
        <ele>785.50470272</ele>
        <time>2018-09-22T19:39:07.009Z</time>
      </trkpt>
      <trkpt lat="48.40618" lon="7.23825">
        <ele>776.44034035945</ele>
        <time>2018-09-22T19:40:07.009Z</time>
      </trkpt>
      <trkpt lat="48.4058" lon="7.23743">
        <ele>777.44089984</ele>
        <time>2018-09-22T19:41:07.009Z</time>
      </trkpt>
      <trkpt lat="48.40592" lon="7.23634">
        <ele>772.87280128</ele>
        <time>2018-09-22T19:42:09.009Z</time>
      </trkpt>
      <trkpt lat="48.40623" lon="7.23546">
        <ele>783.33619712</ele>
        <time>2018-09-22T19:43:10.009Z</time>
      </trkpt>
      <trkpt lat="48.407" lon="7.2352">
        <ele>780.30920192</ele>
        <time>2018-09-22T19:44:09.009Z</time>
      </trkpt>
      <trkpt lat="48.40759" lon="7.23522">
        <ele>770.95460096</ele>
        <time>2018-09-22T19:45:11.009Z</time>
      </trkpt>
      <trkpt lat="48.40817" lon="7.23509">
        <ele>772.96359936</ele>
        <time>2018-09-22T19:46:10.009Z</time>
      </trkpt>
      <trkpt lat="48.40881" lon="7.23504">
        <ele>774</ele>
        <time>2018-09-22T19:47:09.009Z</time>
      </trkpt>
      <trkpt lat="48.40936" lon="7.23494">
        <ele>771.35460096</ele>
        <time>2018-09-22T19:48:07.009Z</time>
      </trkpt>
      <trkpt lat="48.40955" lon="7.23466">
        <ele>775.05439744</ele>
        <time>2018-09-22T19:49:07.009Z</time>
      </trkpt>
      <trkpt lat="48.40947" lon="7.23364">
        <ele>779.55460096</ele>
        <time>2018-09-22T19:50:10.009Z</time>
      </trkpt>
      <trkpt lat="48.40997" lon="7.23322">
        <ele>772.23190144</ele>
        <time>2018-09-22T19:51:09.009Z</time>
      </trkpt>
      <trkpt lat="48.41014" lon="7.23286">
        <ele>774.29079808</ele>
        <time>2018-09-22T19:52:07.009Z</time>
      </trkpt>
      <trkpt lat="48.41028" lon="7.23189">
        <ele>789.33169792</ele>
        <time>2018-09-22T19:53:09.009Z</time>
      </trkpt>
      <trkpt lat="48.41115" lon="7.23155">
        <ele>775.477504</ele>
        <time>2018-09-22T19:54:10.009Z</time>
      </trkpt>
      <trkpt lat="48.4115" lon="7.23174">
        <ele>770.28179968</ele>
        <time>2018-09-22T19:55:09.009Z</time>
      </trkpt>
      <trkpt lat="48.41185" lon="7.23182">
        <ele>775.4089984</ele>
        <time>2018-09-22T19:56:07.009Z</time>
      </trkpt>
      <trkpt lat="48.41219" lon="7.23131">
        <ele>777.15460096</ele>
        <time>2018-09-22T19:57:09.009Z</time>
      </trkpt>
      <trkpt lat="48.41256" lon="7.23035">
        <ele>776.92269952</ele>
        <time>2018-09-22T19:58:09.009Z</time>
      </trkpt>
      <trkpt lat="48.41294" lon="7.22948">
        <ele>776.71820032</ele>
        <time>2018-09-22T19:59:09.009Z</time>
      </trkpt>
      <trkpt lat="48.41347" lon="7.22898">
        <ele>771.55460096</ele>
        <time>2018-09-22T20:00:10.009Z</time>
      </trkpt>
      <trkpt lat="48.41365" lon="7.22896">
        <ele>772.22269952</ele>
        <time>2018-09-22T20:01:10.009Z</time>
      </trkpt>
      <trkpt lat="48.41376" lon="7.22893">
        <ele>777.56809856</ele>
        <time>2018-09-22T20:03:11.009Z</time>
      </trkpt>
      <trkpt lat="48.41365" lon="7.22896">
        <ele>774.55460096</ele>
        <time>2018-09-22T20:04:10.009Z</time>
      </trkpt>
      <trkpt lat="48.41379" lon="7.22898">
        <ele>796.22269952</ele>
        <time>2018-09-22T20:10:10.009Z</time>
      </trkpt>
      <trkpt lat="48.41367" lon="7.22896">
        <ele>776.81840384</ele>
        <time>2018-09-22T20:11:11.009Z</time>
      </trkpt>
      <trkpt lat="48.41415" lon="7.22867">
        <ele>772.33190144</ele>
        <time>2018-09-22T20:16:10.009Z</time>
      </trkpt>
      <trkpt lat="48.41457" lon="7.22926">
        <ele>772.52269952</ele>
        <time>2018-09-22T20:17:11.009Z</time>
      </trkpt>
      <trkpt lat="48.4147" lon="7.23008">
        <ele>786.33619712</ele>
        <time>2018-09-22T20:18:10.009Z</time>
      </trkpt>
      <trkpt lat="48.41484" lon="7.23091">
        <ele>780.74560256</ele>
        <time>2018-09-22T20:19:09.009Z</time>
      </trkpt>
      <trkpt lat="48.41491" lon="7.23171">
        <ele>779.4089984</ele>
        <time>2018-09-22T20:20:07.009Z</time>
      </trkpt>
      <trkpt lat="48.41521" lon="7.23258">
        <ele>788.08629888</ele>
        <time>2018-09-22T20:21:07.009Z</time>
      </trkpt>
      <trkpt lat="48.41559" lon="7.23362">
        <ele>797.76809856</ele>
        <time>2018-09-22T20:22:09.009Z</time>
      </trkpt>
      <trkpt lat="48.41626" lon="7.23429">
        <ele>804.84539904</ele>
        <time>2018-09-22T20:23:09.009Z</time>
      </trkpt>
      <trkpt lat="48.41661" lon="7.23384">
        <ele>807</ele>
        <time>2018-09-22T20:24:11.009Z</time>
      </trkpt>
      <trkpt lat="48.41682" lon="7.23444">
        <ele>812.18629888</ele>
        <time>2018-09-22T20:25:10.009Z</time>
      </trkpt>
      <trkpt lat="48.41687" lon="7.23499">
        <ele>819.88629888</ele>
        <time>2018-09-22T20:26:11.009Z</time>
      </trkpt>
      <trkpt lat="48.4166" lon="7.23565">
        <ele>820.35945950448</ele>
        <time>2018-09-22T20:27:09.009Z</time>
      </trkpt>
      <trkpt lat="48.41633" lon="7.23612">
        <ele>827.04989824</ele>
        <time>2018-09-22T20:28:09.009Z</time>
      </trkpt>
      <trkpt lat="48.41576" lon="7.2359">
        <ele>828.7955008</ele>
        <time>2018-09-22T20:29:07.009Z</time>
      </trkpt>
      <trkpt lat="48.41518" lon="7.2354">
        <ele>829.52719872</ele>
        <time>2018-09-22T20:30:07.009Z</time>
      </trkpt>
      <trkpt lat="48.41481" lon="7.23459">
        <ele>833.55910016</ele>
        <time>2018-09-22T20:31:07.009Z</time>
      </trkpt>
      <trkpt lat="48.41459" lon="7.23368">
        <ele>827.23190144</ele>
        <time>2018-09-22T20:32:09.009Z</time>
      </trkpt>
      <trkpt lat="48.41429" lon="7.23262">
        <ele>830.72719872</ele>
        <time>2018-09-22T20:33:11.009Z</time>
      </trkpt>
      <trkpt lat="48.41403" lon="7.23265">
        <ele>825.82740224</ele>
        <time>2018-09-22T20:34:07.009Z</time>
      </trkpt>
      <trkpt lat="48.41379" lon="7.23323">
        <ele>828.89529728</ele>
        <time>2018-09-22T20:35:09.009Z</time>
      </trkpt>
      <trkpt lat="48.41347" lon="7.23384">
        <ele>844.63169792</ele>
        <time>2018-09-22T20:36:10.009Z</time>
      </trkpt>
      <trkpt lat="48.41314" lon="7.23449">
        <ele>848.74089984</ele>
        <time>2018-09-22T20:37:10.009Z</time>
      </trkpt>
      <trkpt lat="48.41266" lon="7.2351">
        <ele>859.08888757913</ele>
        <time>2018-09-22T20:38:11.009Z</time>
      </trkpt>
      <trkpt lat="48.41242" lon="7.23544">
        <ele>861.74089984</ele>
        <time>2018-09-22T20:39:10.009Z</time>
      </trkpt>
      <trkpt lat="48.41221" lon="7.23609">
        <ele>867.12719872</ele>
        <time>2018-09-22T20:40:09.009Z</time>
      </trkpt>
      <trkpt lat="48.41208" lon="7.23697">
        <ele>866.47280128</ele>
        <time>2018-09-22T20:41:07.009Z</time>
      </trkpt>
      <trkpt lat="48.41161" lon="7.23762">
        <ele>863.28179968</ele>
        <time>2018-09-22T20:42:09.009Z</time>
      </trkpt>
      <trkpt lat="48.41114" lon="7.23821">
        <ele>869.92719872</ele>
        <time>2018-09-22T20:43:10.009Z</time>
      </trkpt>
      <trkpt lat="48.41068" lon="7.23896">
        <ele>875.08629888</ele>
        <time>2018-09-22T20:44:07.009Z</time>
      </trkpt>
      <trkpt lat="48.41042" lon="7.23967">
        <ele>876.35460096</ele>
        <time>2018-09-22T20:45:07.009Z</time>
      </trkpt>
      <trkpt lat="48.41" lon="7.24033">
        <ele>873</ele>
        <time>2018-09-22T20:46:10.009Z</time>
      </trkpt>
      <trkpt lat="48.40975" lon="7.23982">
        <ele>873.74089984</ele>
        <time>2018-09-22T20:47:10.009Z</time>
      </trkpt>
      <trkpt lat="48.40986" lon="7.2399">
        <ele>882.97259776</ele>
        <time>2018-09-22T20:48:09.009Z</time>
      </trkpt>
      <trkpt lat="48.40978" lon="7.23967">
        <ele>877.62740224</ele>
        <time>2018-09-22T20:49:10.009Z</time>
      </trkpt>
      <trkpt lat="48.40984" lon="7.23979">
        <ele>868.87280128</ele>
        <time>2018-09-22T20:50:09.009Z</time>
      </trkpt>
      <trkpt lat="48.40963" lon="7.23984">
        <ele>879.51820032</ele>
        <time>2018-09-22T20:53:10.009Z</time>
      </trkpt>
      <trkpt lat="48.40926" lon="7.23927">
        <ele>870.85010176</ele>
        <time>2018-09-22T20:54:10.009Z</time>
      </trkpt>
      <trkpt lat="48.4087" lon="7.239">
        <ele>845.7730048</ele>
        <time>2018-09-22T20:55:10.009Z</time>
      </trkpt>
      <trkpt lat="48.40802" lon="7.23865">
        <ele>840.99239936</ele>
        <time>2018-09-22T20:56:20.081Z</time>
      </trkpt>
      <trkpt lat="48.4077" lon="7.23791">
        <ele>843.32269952</ele>
        <time>2018-09-22T20:57:07.009Z</time>
      </trkpt>
      <trkpt lat="48.40823" lon="7.23722">
        <ele>827.21840384</ele>
        <time>2018-09-22T20:58:10.009Z</time>
      </trkpt>
      <trkpt lat="48.40886" lon="7.23695">
        <ele>822.28179968</ele>
        <time>2018-09-22T20:59:09.009Z</time>
      </trkpt>
      <trkpt lat="48.40955" lon="7.23656">
        <ele>816.33190144</ele>
        <time>2018-09-22T21:00:10.009Z</time>
      </trkpt>
      <trkpt lat="48.40978" lon="7.23589">
        <ele>796.21840384</ele>
        <time>2018-09-22T21:01:10.009Z</time>
      </trkpt>
      <trkpt lat="48.40956" lon="7.23495">
        <ele>789.11820032</ele>
        <time>2018-09-22T21:02:07.009Z</time>
      </trkpt>
      <trkpt lat="48.40997" lon="7.23412">
        <ele>792.84989824</ele>
        <time>2018-09-22T21:03:07.009Z</time>
      </trkpt>
      <trkpt lat="48.41053" lon="7.23352">
        <ele>798.35910016</ele>
        <time>2018-09-22T21:04:09.009Z</time>
      </trkpt>
      <trkpt lat="48.41099" lon="7.23286">
        <ele>802.84989824</ele>
        <time>2018-09-22T21:05:07.009Z</time>
      </trkpt>
      <trkpt lat="48.41168" lon="7.233">
        <ele>801.95010176</ele>
        <time>2018-09-22T21:06:09.009Z</time>
      </trkpt>
      <trkpt lat="48.41222" lon="7.23302">
        <ele>811.45439744</ele>
        <time>2018-09-22T21:07:11.009Z</time>
      </trkpt>
    </trkseg>
  </trk>
</gpx>